Latest Weather Observations for Alice Springs Airport

IDD60801

Issued at 10:05 pm CST Friday 25 July 2014 (issued every 30 minutes, with the page automatically refreshed every 10 minutes)

About weather observations | Map of weather stations | Latest weather observations for NT | Other Formats
Station Details ID: 015590 Name: ALICE SPRINGS AIRPORT Lat: -23.80 Lon: 133.89 Height: 546.0 m
Data from the previous 72 hours. | See also: Recent months at Alice Springs Airport
Date/Time
CST
Temp
°C
App
Temp
°C
Dew
Point
Rel
Hum
%
Delta-T
°C
Wind Press
QNH
hPa
Press
MSL
hPa
Rain
since 9 am
mm
Dir
 
Spd
km/h
Gust
km/h
Spd
kts
Gust
kts
25/10:00pm 9.8 7.9 4.8 71 2.3 ENE 4 7 2 4 1025.5 - 0.0
25/09:30pm 11.4 10.1 4.2 61 3.3 SE 0 4 0 2 1025.1 1024.9 0.0
25/09:00pm 11.7 9.1 4.4 61 3.4 SE 7 9 4 5 1024.8 1024.6 0.0
25/08:30pm 13.3 10.4 4.4 55 4.2 ESE 9 11 5 6 1024.2 1024.0 0.0
25/08:00pm 13.5 10.6 4.4 54 4.3 SE 9 11 5 6 1023.8 - 0.0
25/07:30pm 13.9 10.6 4.4 52 4.5 SE 11 11 6 6 1023.2 1023.0 0.0
25/07:00pm 14.4 11.1 4.3 50 4.8 SSE 11 13 6 7 1022.9 - 0.0
25/06:30pm 15.5 12.2 4.4 47 5.3 SSE 11 13 6 7 1022.6 1022.4 0.0
25/06:00pm 17.8 14.4 3.9 39 6.7 SE 11 15 6 8 1022.2 1022.0 0.0
25/05:30pm 19.3 15.7 2.7 33 7.9 ESE 11 15 6 8 1021.9 1021.6 0.0
25/05:00pm 19.7 15.6 2.1 31 8.3 S 13 17 7 9 1021.8 - 0.0
25/04:30pm 19.8 15.8 2.6 32 8.2 ESE 13 19 7 10 1021.6 1021.4 0.0
25/04:00pm 19.4 15.3 2.2 32 8.1 ESE 13 19 7 10 1021.4 - 0.0
25/03:30pm 20.0 15.5 2.3 31 8.4 E 15 24 8 13 1021.2 1021.0 0.0
25/03:00pm 20.0 15.6 2.9 32 8.2 ENE 15 24 8 13 1021.2 1021.0 0.0
25/02:30pm 19.7 15.7 3.1 33 8.0 E 13 20 7 11 1021.3 1021.1 0.0
25/02:00pm 19.2 13.8 2.5 33 7.9 E 20 28 11 15 1021.6 - 0.0
25/01:30pm 18.4 14.0 2.5 34 7.5 SE 15 22 8 12 1021.8 1021.5 0.0
25/01:00pm 18.6 13.7 2.2 33 7.7 ESE 17 26 9 14 1022.6 - 0.0
25/12:30pm 17.9 13.4 1.9 34 7.4 SE 15 26 8 14 1023.3 1023.1 0.0
25/12:00pm 16.7 12.3 2.5 38 6.6 E 15 24 8 13 1023.9 1023.7 0.0
25/11:30am 17.2 12.3 2.0 36 7.0 ESE 17 24 9 13 1024.3 1024.1 0.0
25/11:00am 16.6 11.7 2.3 38 6.6 ESE 17 26 9 14 1024.5 - 0.0
25/10:30am 15.4 10.2 2.3 41 6.0 ESE 19 26 10 14 1024.4 1024.2 0.0
25/10:00am 14.7 10.3 2.7 44 5.5 SE 15 22 8 12 1024.5 - 0.0
25/09:30am 13.1 10.5 4.1 54 4.2 SE 7 11 4 6 1024.5 1024.3 0.0
25/09:00am 11.5 9.5 4.4 61 3.3 SW 4 7 2 4 1024.2 1024.0 0.0
25/08:30am 10.2 7.7 4.5 68 2.6 W 7 9 4 5 1023.8 1023.6 0.0
25/08:00am 8.3 5.4 4.8 78 1.6 WNW 9 11 5 6 1023.2 - 0.0
25/07:30am 6.5 3.1 4.0 84 1.1 W 11 13 6 7 1023.0 1022.8 0.0
25/07:00am 6.6 3.6 3.9 83 1.2 W 9 11 5 6 1022.6 - 0.0
25/06:30am 6.6 3.3 4.3 85 1.0 WNW 11 13 6 7 1022.0 1021.7 0.0
25/06:00am 7.4 4.8 4.3 81 1.4 WSW 7 9 4 5 1021.5 1021.3 0.0
25/05:30am 7.7 4.8 4.6 81 1.4 WSW 9 11 5 6 1021.1 1020.9 0.0
25/05:00am 7.7 4.8 4.8 82 1.3 W 9 9 5 5 1020.8 - 0.0
25/04:30am 7.7 4.1 5.1 83 1.2 W 13 15 7 8 1020.6 1020.4 0.0
25/04:00am 8.7 5.5 5.2 79 1.6 WSW 11 13 6 7 1020.5 - 0.0
25/03:30am 9.4 6.2 5.3 75 1.9 W 11 15 6 8 1020.1 1019.8 0.0
25/03:00am 9.4 8.0 5.3 75 1.9 W 2 11 1 6 1020.1 1019.8 0.0
25/02:30am 10.0 6.4 5.1 71 2.3 SW 13 15 7 8 1020.1 1019.8 0.0
25/02:00am 9.8 7.4 5.3 73 2.1 N 7 11 4 6 1020.0 - 0.0
25/01:30am 10.5 7.5 4.2 65 2.9 N 9 11 5 6 1019.6 1019.4 0.0
25/01:00am 10.1 7.2 4.4 68 2.6 NNW 9 11 5 6 1019.9 - 0.0
25/12:30am 9.7 7.2 4.5 70 2.4 NW 7 9 4 5 1020.0 1019.7 0.0
25/12:00am 9.8 7.3 4.6 70 2.4 W 7 9 4 5 1019.9 1019.6 0.0
 
Date/Time
CST
Temp
°C
App
Temp
°C
Dew
Point
Rel
Hum
%
Delta-T
°C
Wind Press
QNH
hPa
Press
MSL
hPa
Rain
since 9 am
mm
Dir
 
Spd
km/h
Gust
km/h
Spd
kts
Gust
kts
24/11:30pm 9.9 8.3 4.7 70 2.4 WNW 2 15 1 8 1019.6 1019.4 0.0
24/11:00pm 10.4 9.3 5.0 69 2.5 CALM 0 0 0 0 1019.6 - 0.0
24/10:30pm 11.0 9.5 5.0 66 2.8 WNW 2 7 1 4 1019.5 1019.3 0.0
24/10:00pm 10.4 7.6 5.3 70 2.4 SSW 9 9 5 5 1019.3 - 0.0
24/09:30pm 12.6 9.9 5.5 62 3.4 SSW 9 9 5 5 1019.0 1018.8 0.0
24/09:00pm 13.2 9.5 4.5 55 4.1 SW 13 15 7 8 1018.7 1018.4 0.0
24/08:30pm 13.3 10.1 4.9 57 4.0 SSW 11 11 6 6 1018.2 1017.9 0.0
24/08:00pm 13.9 10.7 5.2 55 4.2 S 11 13 6 7 1018.0 - 0.0
24/07:30pm 14.9 11.7 5.0 51 4.8 SSW 11 13 6 7 1017.5 1017.3 0.0
24/07:00pm 15.8 12.6 4.9 48 5.3 SE 11 13 6 7 1017.0 - 0.0
24/06:30pm 17.5 13.7 4.1 41 6.5 S 13 15 7 8 1016.7 1016.4 0.0
24/06:00pm 18.1 14.9 5.0 42 6.5 S 11 17 6 9 1016.4 1016.1 0.0
24/05:30pm 20.0 16.2 3.9 34 7.9 ESE 13 15 7 8 1015.7 1015.4 0.0
24/05:00pm 20.6 16.7 3.4 32 8.4 ESE 13 17 7 9 1015.4 - 0.0
24/04:30pm 21.0 17.1 3.2 31 8.7 ESE 13 19 7 10 1015.2 1014.9 0.0
24/04:00pm 21.7 17.7 3.1 29 9.1 ESE 13 19 7 10 1014.8 - 0.0
24/03:30pm 21.6 18.4 2.9 29 9.1 ESE 9 15 5 8 1014.9 1014.6 0.0
24/03:00pm 21.1 17.5 3.0 30 8.8 E 11 17 6 9 1015.2 1014.9 0.0
24/02:30pm 20.6 17.4 2.8 31 8.6 ENE 9 17 5 9 1015.4 1015.1 0.0
24/02:00pm 20.1 16.5 2.9 32 8.3 ENE 11 26 6 14 1015.7 - 0.0
24/01:30pm 19.4 16.3 3.5 35 7.7 ESE 9 19 5 10 1016.2 1015.9 0.0
24/01:00pm 18.6 14.7 3.4 36 7.3 E 13 30 7 16 1016.8 - 0.0
24/12:30pm 18.2 14.4 3.7 38 7.0 ESE 13 22 7 12 1017.6 1017.4 0.0
24/12:00pm 17.3 13.1 3.7 40 6.5 E 15 24 8 13 1018.3 1018.0 0.0
24/11:30am 17.4 13.1 3.3 39 6.7 ESE 15 26 8 14 1018.7 1018.4 0.0
24/11:00am 16.5 12.2 3.4 41 6.2 E 15 20 8 11 1019.3 - 0.0
24/10:30am 16.0 12.0 2.9 41 6.1 E 13 19 7 10 1019.4 1019.2 0.0
24/10:00am 15.0 11.3 2.3 42 5.8 ESE 11 17 6 9 1019.7 - 0.0
24/09:30am 14.4 10.7 2.6 45 5.4 ESE 11 17 6 9 1019.5 1019.3 0.0
24/09:00am 12.5 9.9 4.1 56 3.9 SSW 7 11 4 6 1019.5 1019.3 0.0
24/08:30am 10.4 8.3 6.5 77 1.9 W 7 9 4 5 1019.1 1018.9 0.0
24/08:00am 9.3 6.8 6.6 83 1.3 W 9 13 5 7 1018.7 - 0.0
24/07:30am 8.7 5.8 6.6 87 1.0 WSW 11 11 6 6 1018.6 1018.3 0.0
24/07:00am 8.1 5.2 6.4 89 0.8 W 11 13 6 7 1018.3 - 0.0
24/06:30am 9.1 7.0 6.6 84 1.2 WSW 7 9 4 5 1018.0 1017.7 0.0
24/06:00am 8.5 6.0 6.6 88 0.9 WSW 9 11 5 6 1017.7 1017.5 0.0
24/05:30am 9.3 7.3 7.2 87 1.0 W 7 9 4 5 1017.4 1017.2 0.0
24/05:00am 9.4 7.7 7.4 87 1.0 W 6 7 3 4 1017.1 - 0.0
24/04:30am 9.3 7.3 7.2 87 1.0 W 7 9 4 5 1016.9 1016.6 0.0
24/04:00am 9.8 7.2 7.6 86 1.1 SW 11 11 6 6 1016.7 - 0.0
24/03:30am 9.7 8.8 7.7 87 1.0 SW 2 7 1 4 1016.7 1016.4 0.0
24/03:00am 10.7 8.2 8.1 84 1.3 WSW 11 13 6 7 1016.6 1016.3 0.0
24/02:30am 11.4 9.7 7.6 77 1.9 WNW 6 9 3 5 1016.7 1016.4 0.0
24/02:00am 12.2 11.7 7.8 74 2.2 CALM 0 4 0 2 1016.7 - 0.0
24/01:30am 12.7 11.0 8.2 74 2.3 SSW 7 11 4 6 1016.9 1016.6 0.0
24/01:00am 13.1 11.0 8.4 73 2.4 WSW 9 11 5 6 1016.8 - 0.0
24/12:30am 13.2 10.3 8.1 71 2.6 W 13 13 7 7 1016.8 1016.5 0.0
24/12:00am 13.7 11.5 7.8 67 3.0 W 9 11 5 6 1016.7 1016.4 0.0
 
Date/Time
CST
Temp
°C
App
Temp
°C
Dew
Point
Rel
Hum
%
Delta-T
°C
Wind Press
QNH
hPa
Press
MSL
hPa
Rain
since 9 am
mm
Dir
 
Spd
km/h
Gust
km/h
Spd
kts
Gust
kts
23/11:30pm 13.7 12.0 8.5 71 2.7 NW 7 7 4 4 1016.6 1016.3 0.0
23/11:00pm 15.4 13.6 7.8 60 3.9 W 7 9 4 5 1016.4 - 0.0
23/10:30pm 16.4 14.0 8.6 60 4.1 SSW 11 13 6 7 1016.3 1016.0 0.0
23/10:00pm 17.9 14.4 7.3 50 5.5 SSW 15 20 8 11 1016.4 - 0.0
23/09:30pm 17.9 16.0 7.5 50 5.4 SW 7 9 4 5 1016.0 1015.7 0.0
23/09:00pm 18.9 15.9 5.9 42 6.6 SW 11 15 6 8 1015.5 1015.2 0.0
23/08:30pm 19.8 15.7 2.0 30 8.4 NW 13 28 7 15 1015.0 1014.7 0.0
23/08:00pm 18.3 14.9 3.9 38 7.0 NW 11 13 6 7 1014.8 - 0.0
23/07:30pm 20.0 16.5 1.4 29 8.7 NNW 9 11 5 6 1014.5 1014.2 0.0
23/07:00pm 20.3 16.5 1.6 29 8.8 N 11 13 6 7 1014.2 - 0.0
23/06:30pm 20.9 17.1 1.7 28 9.1 NW 11 15 6 8 1014.0 1013.6 0.0
23/06:00pm 22.4 17.7 1.1 24 10.1 WNW 15 17 8 9 1013.6 1013.3 0.0
23/05:30pm 24.6 18.8 0.0 19 11.6 W 20 30 11 16 1013.6 1013.3 0.0
23/05:00pm 25.6 19.7 -0.9 17 12.4 W 20 28 11 15 1013.5 - 0.0
23/04:30pm 25.5 17.7 -3.4 14 12.9 NW 28 35 15 19 1013.5 1013.2 0.0
23/04:00pm 25.5 17.4 -2.9 15 12.8 WNW 30 41 16 22 1013.4 - 0.0
23/03:30pm 25.7 18.7 -3.8 14 13.1 NW 24 39 13 21 1013.3 1013.0 0.0
23/03:00pm 25.5 17.7 -3.9 14 13.0 NW 28 43 15 23 1013.5 1013.2 0.0
23/02:30pm 25.4 18.3 -4.2 14 13.0 NW 24 28 13 15 1013.7 1013.4 0.0
23/02:00pm 24.2 16.6 -5.5 13 12.6 NNW 26 33 14 18 1014.1 - 0.0
23/01:30pm 23.3 14.8 -6.5 13 12.3 NNW 30 37 16 20 1014.5 1014.2 0.0
23/01:00pm 21.7 12.8 -7.3 13 11.6 NNW 32 41 17 22 1015.1 - 0.0
23/12:30pm 23.1 15.3 -7.1 13 12.3 NNW 26 35 14 19 1015.7 1015.4 0.0
23/12:00pm 20.6 13.2 -7.7 14 11.1 NNW 24 33 13 18 1016.7 1016.4 0.0
23/11:30am 19.7 13.7 -6.9 16 10.5 N 17 22 9 12 1017.3 1017.1 0.0
23/11:00am 19.5 12.9 -6.9 16 10.4 N 20 32 11 17 1017.6 - 0.0
23/10:30am 19.2 13.7 -5.6 18 10.0 N 15 22 8 12 1018.0 1017.7 0.0
23/10:00am 18.7 12.4 -5.9 18 9.8 N 19 28 10 15 1018.3 - 0.0
23/09:30am 18.3 12.4 -5.4 19 9.5 N 17 26 9 14 1018.4 1018.1 0.0
23/09:00am 18.1 12.9 -6.4 18 9.6 N 13 17 7 9 1018.2 1017.9 0.0
23/08:30am 17.5 12.1 -4.4 22 8.9 N 15 24 8 13 1018.3 1018.0 0.0
23/08:00am 17.8 13.9 -5.1 20 9.2 NNE 7 15 4 8 1017.9 - 0.0
23/07:30am 17.6 14.0 -3.7 23 8.8 N 6 7 3 4 1017.9 1017.6 0.0
23/07:00am 17.1 13.4 -2.7 25 8.3 NNE 7 11 4 6 1017.7 - 0.0
23/06:30am 17.7 14.1 -3.5 23 8.8 NNW 6 9 3 5 1017.9 1017.6 0.0
23/06:00am 16.9 13.9 -1.9 27 8.0 NNE 4 7 2 4 1017.6 1017.4 0.0
23/05:30am 17.6 14.8 -3.3 24 8.7 NNW 2 9 1 5 1017.4 1017.2 0.0
23/05:00am 18.0 13.6 -5.6 19 9.4 SSW 9 15 5 8 1017.0 - 0.0
23/04:30am 18.1 12.7 -4.9 20 9.3 N 15 22 8 12 1016.5 1016.2 0.0
23/04:00am 18.0 12.7 -3.3 23 8.9 NNE 15 24 8 13 1016.6 - 0.0
23/03:30am 18.5 13.2 -3.5 22 9.2 NNE 15 20 8 11 1016.6 1016.3 0.0
23/03:00am 17.4 13.6 -0.6 29 7.9 NNE 9 13 5 7 1016.8 1016.5 0.0
23/02:30am 17.9 15.9 -0.4 29 8.1 CALM 0 6 0 3 1016.9 1016.6 0.0
23/02:00am 18.5 16.4 -1.1 26 8.6 CALM 0 0 0 0 1017.2 - 0.0
23/01:30am 14.6 12.2 5.1 53 4.6 E 7 7 4 4 1017.3 1017.1 0.0
23/01:00am 14.4 12.0 5.3 54 4.4 ESE 7 9 4 5 1017.5 - 0.0
23/12:30am 14.8 12.6 6.3 56 4.2 ESE 7 9 4 5 1018.1 1017.8 0.0
23/12:00am 15.2 13.1 5.6 52 4.7 SE 6 7 3 4 1018.3 1018.0 0.0
 
Date/Time
CST
Temp
°C
App
Temp
°C
Dew
Point
Rel
Hum
%
Delta-T
°C
Wind Press
QNH
hPa
Press
MSL
hPa
Rain
since 9 am
mm
Dir
 
Spd
km/h
Gust
km/h
Spd
kts
Gust
kts
22/11:30pm 15.1 13.2 6.5 56 4.3 SSE 6 7 3 4 1018.7 1018.4 0.0
22/11:00pm 15.5 13.4 5.8 52 4.8 S 6 7 3 4 1018.9 - 0.0
22/10:30pm 15.9 13.3 4.2 45 5.6 SSE 7 7 4 4 1018.8 1018.5 0.0

Other Formats:

Comma delimited format used in spreadsheet applications
http://www.bom.gov.au/fwo/IDD60801/IDD60801.94326.axf

JavaScript Object Notation format (JSON) in row-major order
http://www.bom.gov.au/fwo/IDD60801/IDD60801.94326.json